sensor_id;sensor_type;location;lat;lon;timestamp;P1;durP1;ratioP1;P2;durP2;ratioP2
10309;SDS011;5200;43.236;27.986;2022-08-19T00:00:36;10.20;;;6.45;;
10309;SDS011;5200;43.236;27.986;2022-08-19T00:03:03;6.50;;;5.90;;
10309;SDS011;5200;43.236;27.986;2022-08-19T00:05:32;8.32;;;6.32;;
10309;SDS011;5200;43.236;27.986;2022-08-19T00:07:59;6.97;;;6.28;;
10309;SDS011;5200;43.236;27.986;2022-08-19T00:10:26;6.72;;;6.07;;
10309;SDS011;5200;43.236;27.986;2022-08-19T00:12:53;10.32;;;6.18;;
10309;SDS011;5200;43.236;27.986;2022-08-19T00:15:21;7.13;;;6.25;;
10309;SDS011;5200;43.236;27.986;2022-08-19T00:17:48;8.43;;;6.30;;
10309;SDS011;5200;43.236;27.986;2022-08-19T00:20:19;6.45;;;5.85;;
10309;SDS011;5200;43.236;27.986;2022-08-19T00:22:47;7.68;;;6.45;;
10309;SDS011;5200;43.236;27.986;2022-08-19T00:25:14;6.95;;;6.28;;
10309;SDS011;5200;43.236;27.986;2022-08-19T00:27:42;6.97;;;6.28;;
10309;SDS011;5200;43.236;27.986;2022-08-19T00:30:09;7.80;;;7.03;;
10309;SDS011;5200;43.236;27.986;2022-08-19T00:32:38;7.47;;;6.45;;
10309;SDS011;5200;43.236;27.986;2022-08-19T00:35:06;8.23;;;6.30;;
10309;SDS011;5200;43.236;27.986;2022-08-19T00:37:34;7.00;;;6.32;;
10309;SDS011;5200;43.236;27.986;2022-08-19T00:40:02;8.38;;;6.65;;
10309;SDS011;5200;43.236;27.986;2022-08-19T00:42:31;7.00;;;6.30;;
10309;SDS011;5200;43.236;27.986;2022-08-19T00:44:58;8.77;;;6.15;;
10309;SDS011;5200;43.236;27.986;2022-08-19T00:47:25;6.35;;;5.60;;
10309;SDS011;5200;43.236;27.986;2022-08-19T00:49:53;6.05;;;5.45;;
10309;SDS011;5200;43.236;27.986;2022-08-19T00:52:24;7.70;;;6.03;;
10309;SDS011;5200;43.236;27.986;2022-08-19T00:54:54;9.70;;;5.82;;
10309;SDS011;5200;43.236;27.986;2022-08-19T00:57:22;8.15;;;6.88;;
10309;SDS011;5200;43.236;27.986;2022-08-19T00:59:54;7.18;;;6.35;;
10309;SDS011;5200;43.236;27.986;2022-08-19T01:02:23;7.43;;;6.45;;
10309;SDS011;5200;43.236;27.986;2022-08-19T01:04:50;9.52;;;6.88;;
10309;SDS011;5200;43.236;27.986;2022-08-19T01:07:19;9.02;;;6.75;;
10309;SDS011;5200;43.236;27.986;2022-08-19T01:09:46;8.93;;;6.18;;
10309;SDS011;5200;43.236;27.986;2022-08-19T01:12:13;8.80;;;7.07;;
10309;SDS011;5200;43.236;27.986;2022-08-19T01:14:41;8.80;;;6.47;;
10309;SDS011;5200;43.236;27.986;2022-08-19T01:17:09;6.63;;;5.93;;
10309;SDS011;5200;43.236;27.986;2022-08-19T01:19:38;10.98;;;6.68;;
10309;SDS011;5200;43.236;27.986;2022-08-19T01:22:11;7.13;;;6.30;;
10309;SDS011;5200;43.236;27.986;2022-08-19T01:24:42;8.70;;;6.63;;
10309;SDS011;5200;43.236;27.986;2022-08-19T01:27:09;6.65;;;5.68;;
10309;SDS011;5200;43.236;27.986;2022-08-19T01:29:37;7.30;;;6.63;;
10309;SDS011;5200;43.236;27.986;2022-08-19T01:32:05;7.60;;;6.90;;
10309;SDS011;5200;43.236;27.986;2022-08-19T01:34:32;8.15;;;6.32;;
10309;SDS011;5200;43.236;27.986;2022-08-19T01:36:59;10.38;;;6.85;;
10309;SDS011;5200;43.236;27.986;2022-08-19T01:39:33;7.68;;;5.97;;
10309;SDS011;5200;43.236;27.986;2022-08-19T01:42:01;7.07;;;6.10;;
10309;SDS011;5200;43.236;27.986;2022-08-19T01:44:29;8.45;;;7.00;;
10309;SDS011;5200;43.236;27.986;2022-08-19T01:46:56;11.02;;;6.30;;
10309;SDS011;5200;43.236;27.986;2022-08-19T01:49:23;7.43;;;6.70;;
10309;SDS011;5200;43.236;27.986;2022-08-19T01:51:51;7.25;;;6.55;;
10309;SDS011;5200;43.236;27.986;2022-08-19T01:54:20;6.82;;;6.13;;
10309;SDS011;5200;43.236;27.986;2022-08-19T01:56:49;7.32;;;6.55;;
10309;SDS011;5200;43.236;27.986;2022-08-19T01:59:19;8.38;;;6.43;;
10309;SDS011;5200;43.236;27.986;2022-08-19T02:01:49;6.85;;;5.90;;
10309;SDS011;5200;43.236;27.986;2022-08-19T02:04:16;9.38;;;7.10;;
10309;SDS011;5200;43.236;27.986;2022-08-19T02:06:43;7.53;;;6.80;;
10309;SDS011;5200;43.236;27.986;2022-08-19T02:09:10;7.15;;;6.25;;
10309;SDS011;5200;43.236;27.986;2022-08-19T02:11:37;8.70;;;6.07;;
10309;SDS011;5200;43.236;27.986;2022-08-19T02:14:05;8.70;;;6.82;;
10309;SDS011;5200;43.236;27.986;2022-08-19T02:16:34;9.68;;;6.88;;
10309;SDS011;5200;43.236;27.986;2022-08-19T02:19:02;7.15;;;6.28;;
10309;SDS011;5200;43.236;27.986;2022-08-19T02:21:30;9.50;;;6.70;;
10309;SDS011;5200;43.236;27.986;2022-08-19T02:23:57;8.35;;;6.78;;
10309;SDS011;5200;43.236;27.986;2022-08-19T02:26:24;9.48;;;6.80;;
10309;SDS011;5200;43.236;27.986;2022-08-19T02:28:52;8.48;;;6.03;;
10309;SDS011;5200;43.236;27.986;2022-08-19T02:31:21;8.30;;;6.72;;
10309;SDS011;5200;43.236;27.986;2022-08-19T02:33:50;8.35;;;6.20;;
10309;SDS011;5200;43.236;27.986;2022-08-19T02:36:18;7.80;;;7.00;;
10309;SDS011;5200;43.236;27.986;2022-08-19T02:38:46;8.07;;;6.00;;
10309;SDS011;5200;43.236;27.986;2022-08-19T02:41:13;8.30;;;6.63;;
10309;SDS011;5200;43.236;27.986;2022-08-19T02:43:42;7.85;;;6.88;;
10309;SDS011;5200;43.236;27.986;2022-08-19T02:46:13;8.73;;;6.93;;
10309;SDS011;5200;43.236;27.986;2022-08-19T02:48:43;9.90;;;7.45;;
10309;SDS011;5200;43.236;27.986;2022-08-19T02:51:16;12.50;;;7.25;;
10309;SDS011;5200;43.236;27.986;2022-08-19T02:53:44;9.00;;;6.95;;
10309;SDS011;5200;43.236;27.986;2022-08-19T02:56:11;7.38;;;6.68;;
10309;SDS011;5200;43.236;27.986;2022-08-19T02:58:38;7.55;;;6.45;;
10309;SDS011;5200;43.236;27.986;2022-08-19T03:01:05;8.05;;;7.10;;
10309;SDS011;5200;43.236;27.986;2022-08-19T03:03:32;10.60;;;6.72;;
10309;SDS011;5200;43.236;27.986;2022-08-19T03:06:03;9.85;;;6.85;;
10309;SDS011;5200;43.236;27.986;2022-08-19T03:08:34;10.60;;;6.97;;
10309;SDS011;5200;43.236;27.986;2022-08-19T03:11:01;7.80;;;6.53;;
10309;SDS011;5200;43.236;27.986;2022-08-19T03:13:28;7.70;;;6.88;;
10309;SDS011;5200;43.236;27.986;2022-08-19T03:15:55;12.32;;;7.20;;
10309;SDS011;5200;43.236;27.986;2022-08-19T03:18:22;7.78;;;6.47;;
10309;SDS011;5200;43.236;27.986;2022-08-19T03:20:50;9.20;;;6.82;;
10309;SDS011;5200;43.236;27.986;2022-08-19T03:23:19;7.05;;;6.45;;
10309;SDS011;5200;43.236;27.986;2022-08-19T03:25:49;9.05;;;6.40;;
10309;SDS011;5200;43.236;27.986;2022-08-19T03:28:17;10.32;;;7.05;;
10309;SDS011;5200;43.236;27.986;2022-08-19T03:30:54;8.90;;;6.75;;
10309;SDS011;5200;43.236;27.986;2022-08-19T03:33:22;8.40;;;6.32;;
10309;SDS011;5200;43.236;27.986;2022-08-19T03:35:59;7.60;;;6.53;;
10309;SDS011;5200;43.236;27.986;2022-08-19T03:38:27;8.80;;;6.68;;
10309;SDS011;5200;43.236;27.986;2022-08-19T03:40:55;7.32;;;6.60;;
10309;SDS011;5200;43.236;27.986;2022-08-19T03:43:22;7.32;;;6.47;;
10309;SDS011;5200;43.236;27.986;2022-08-19T03:45:58;7.10;;;6.50;;
10309;SDS011;5200;43.236;27.986;2022-08-19T03:48:27;7.55;;;6.20;;
10309;SDS011;5200;43.236;27.986;2022-08-19T03:50:55;7.85;;;6.32;;
10309;SDS011;5200;43.236;27.986;2022-08-19T03:53:24;6.20;;;5.57;;
10309;SDS011;5200;43.236;27.986;2022-08-19T03:55:52;6.80;;;6.10;;
10309;SDS011;5200;43.236;27.986;2022-08-19T03:58:21;10.45;;;6.60;;
10309;SDS011;5200;43.236;27.986;2022-08-19T04:00:48;9.57;;;5.93;;
10309;SDS011;5200;43.236;27.986;2022-08-19T04:03:15;6.20;;;5.60;;
10309;SDS011;5200;43.236;27.986;2022-08-19T04:05:44;6.80;;;6.15;;
10309;SDS011;5200;43.236;27.986;2022-08-19T04:08:11;7.60;;;6.07;;
10309;SDS011;5200;43.236;27.986;2022-08-19T04:10:41;7.97;;;6.55;;
10309;SDS011;5200;43.236;27.986;2022-08-19T04:13:08;13.75;;;6.80;;
10309;SDS011;5200;43.236;27.986;2022-08-19T04:15:39;8.35;;;6.63;;
10309;SDS011;5200;43.236;27.986;2022-08-19T04:18:07;6.35;;;5.75;;
10309;SDS011;5200;43.236;27.986;2022-08-19T04:20:38;6.43;;;5.72;;
10309;SDS011;5200;43.236;27.986;2022-08-19T04:23:07;6.53;;;5.72;;
10309;SDS011;5200;43.236;27.986;2022-08-19T04:25:35;6.57;;;5.43;;
10309;SDS011;5200;43.236;27.986;2022-08-19T04:28:03;6.82;;;6.18;;
10309;SDS011;5200;43.236;27.986;2022-08-19T04:30:30;7.00;;;5.75;;
10309;SDS011;5200;43.236;27.986;2022-08-19T04:33:04;6.50;;;5.63;;
10309;SDS011;5200;43.236;27.986;2022-08-19T04:35:34;7.60;;;5.90;;
10309;SDS011;5200;43.236;27.986;2022-08-19T04:38:02;6.43;;;5.82;;
10309;SDS011;5200;43.236;27.986;2022-08-19T04:40:29;6.90;;;6.20;;
10309;SDS011;5200;43.236;27.986;2022-08-19T04:43:14;9.90;;;5.80;;
10309;SDS011;5200;43.236;27.986;2022-08-19T04:45:41;7.43;;;5.80;;
10309;SDS011;5200;43.236;27.986;2022-08-19T04:48:10;6.80;;;5.55;;
10309;SDS011;5200;43.236;27.986;2022-08-19T04:50:39;6.57;;;5.53;;
10309;SDS011;5200;43.236;27.986;2022-08-19T04:53:07;8.18;;;5.90;;
10309;SDS011;5200;43.236;27.986;2022-08-19T04:55:37;7.13;;;6.00;;
10309;SDS011;5200;43.236;27.986;2022-08-19T04:58:06;8.88;;;5.63;;
10309;SDS011;5200;43.236;27.986;2022-08-19T05:00:33;8.27;;;5.82;;
10309;SDS011;5200;43.236;27.986;2022-08-19T05:03:00;6.38;;;5.78;;
10309;SDS011;5200;43.236;27.986;2022-08-19T05:05:28;6.00;;;5.40;;
10309;SDS011;5200;43.236;27.986;2022-08-19T05:07:56;7.05;;;5.88;;
10309;SDS011;5200;43.236;27.986;2022-08-19T05:10:23;7.45;;;6.13;;
10309;SDS011;5200;43.236;27.986;2022-08-19T05:12:50;6.25;;;5.65;;
10309;SDS011;5200;43.236;27.986;2022-08-19T05:15:17;6.50;;;5.55;;
10309;SDS011;5200;43.236;27.986;2022-08-19T05:17:45;6.85;;;5.60;;
10309;SDS011;5200;43.236;27.986;2022-08-19T05:20:25;7.32;;;5.75;;
10309;SDS011;5200;43.236;27.986;2022-08-19T05:23:11;8.82;;;5.95;;
10309;SDS011;5200;43.236;27.986;2022-08-19T05:25:41;11.88;;;6.22;;
10309;SDS011;5200;43.236;27.986;2022-08-19T05:28:09;6.38;;;5.60;;
10309;SDS011;5200;43.236;27.986;2022-08-19T05:30:36;8.95;;;5.80;;
10309;SDS011;5200;43.236;27.986;2022-08-19T05:33:03;9.13;;;5.85;;
10309;SDS011;5200;43.236;27.986;2022-08-19T05:35:30;12.18;;;6.10;;
10309;SDS011;5200;43.236;27.986;2022-08-19T05:37:57;7.70;;;5.95;;
10309;SDS011;5200;43.236;27.986;2022-08-19T05:40:25;8.00;;;5.80;;
10309;SDS011;5200;43.236;27.986;2022-08-19T05:42:52;5.88;;;5.38;;
10309;SDS011;5200;43.236;27.986;2022-08-19T05:45:19;8.98;;;6.63;;
10309;SDS011;5200;43.236;27.986;2022-08-19T05:47:47;10.13;;;5.93;;
10309;SDS011;5200;43.236;27.986;2022-08-19T05:50:14;6.80;;;5.60;;
10309;SDS011;5200;43.236;27.986;2022-08-19T05:52:42;8.52;;;6.15;;
10309;SDS011;5200;43.236;27.986;2022-08-19T05:55:10;9.55;;;5.60;;
10309;SDS011;5200;43.236;27.986;2022-08-19T05:57:38;6.20;;;5.63;;
10309;SDS011;5200;43.236;27.986;2022-08-19T06:00:05;6.80;;;6.10;;
10309;SDS011;5200;43.236;27.986;2022-08-19T06:02:35;6.57;;;5.85;;
10309;SDS011;5200;43.236;27.986;2022-08-19T06:05:02;7.85;;;5.97;;
10309;SDS011;5200;43.236;27.986;2022-08-19T06:07:31;7.13;;;6.05;;
10309;SDS011;5200;43.236;27.986;2022-08-19T06:09:58;8.13;;;5.97;;
10309;SDS011;5200;43.236;27.986;2022-08-19T06:12:24;7.43;;;5.88;;
10309;SDS011;5200;43.236;27.986;2022-08-19T06:15:01;9.30;;;5.45;;
10309;SDS011;5200;43.236;27.986;2022-08-19T06:17:29;7.38;;;5.30;;
10309;SDS011;5200;43.236;27.986;2022-08-19T06:19:57;8.68;;;5.82;;
10309;SDS011;5200;43.236;27.986;2022-08-19T06:22:24;7.93;;;5.35;;
10309;SDS011;5200;43.236;27.986;2022-08-19T06:24:51;10.07;;;5.22;;
10309;SDS011;5200;43.236;27.986;2022-08-19T06:27:19;7.88;;;5.55;;
10309;SDS011;5200;43.236;27.986;2022-08-19T06:29:46;7.90;;;5.82;;
10309;SDS011;5200;43.236;27.986;2022-08-19T06:32:15;10.00;;;5.38;;
10309;SDS011;5200;43.236;27.986;2022-08-19T06:34:43;6.63;;;5.63;;
10309;SDS011;5200;43.236;27.986;2022-08-19T06:37:10;6.07;;;5.57;;
10309;SDS011;5200;43.236;27.986;2022-08-19T06:39:39;10.07;;;5.88;;
10309;SDS011;5200;43.236;27.986;2022-08-19T06:42:10;6.50;;;5.72;;
10309;SDS011;5200;43.236;27.986;2022-08-19T06:44:42;8.25;;;5.75;;
10309;SDS011;5200;43.236;27.986;2022-08-19T06:47:10;8.73;;;5.20;;
10309;SDS011;5200;43.236;27.986;2022-08-19T06:49:41;7.63;;;5.90;;
10309;SDS011;5200;43.236;27.986;2022-08-19T06:52:08;8.60;;;5.60;;
10309;SDS011;5200;43.236;27.986;2022-08-19T06:54:37;7.85;;;5.25;;
10309;SDS011;5200;43.236;27.986;2022-08-19T06:57:05;6.50;;;5.80;;
10309;SDS011;5200;43.236;27.986;2022-08-19T06:59:34;7.60;;;5.68;;
10309;SDS011;5200;43.236;27.986;2022-08-19T07:02:04;6.05;;;5.55;;
10309;SDS011;5200;43.236;27.986;2022-08-19T07:04:33;8.93;;;5.10;;
10309;SDS011;5200;43.236;27.986;2022-08-19T07:07:06;5.38;;;4.80;;
10309;SDS011;5200;43.236;27.986;2022-08-19T07:09:37;5.72;;;5.05;;
10309;SDS011;5200;43.236;27.986;2022-08-19T07:12:06;6.43;;;5.47;;
10309;SDS011;5200;43.236;27.986;2022-08-19T07:14:36;5.30;;;4.80;;
10309;SDS011;5200;43.236;27.986;2022-08-19T07:17:04;6.60;;;5.07;;
10309;SDS011;5200;43.236;27.986;2022-08-19T07:19:32;6.90;;;5.55;;
10309;SDS011;5200;43.236;27.986;2022-08-19T07:22:01;8.77;;;5.55;;
10309;SDS011;5200;43.236;27.986;2022-08-19T07:24:31;5.80;;;5.15;;
10309;SDS011;5200;43.236;27.986;2022-08-19T07:26:59;6.50;;;5.13;;
10309;SDS011;5200;43.236;27.986;2022-08-19T07:29:29;8.23;;;5.40;;
10309;SDS011;5200;43.236;27.986;2022-08-19T07:31:58;5.22;;;4.72;;
10309;SDS011;5200;43.236;27.986;2022-08-19T07:34:26;6.93;;;4.90;;
10309;SDS011;5200;43.236;27.986;2022-08-19T07:36:55;7.28;;;5.03;;
10309;SDS011;5200;43.236;27.986;2022-08-19T07:39:24;9.93;;;4.85;;
10309;SDS011;5200;43.236;27.986;2022-08-19T07:41:54;6.28;;;4.78;;
10309;SDS011;5200;43.236;27.986;2022-08-19T07:44:22;5.32;;;4.82;;
10309;SDS011;5200;43.236;27.986;2022-08-19T07:46:50;9.05;;;5.60;;
10309;SDS011;5200;43.236;27.986;2022-08-19T07:49:17;6.13;;;5.10;;
10309;SDS011;5200;43.236;27.986;2022-08-19T07:51:46;6.75;;;5.38;;
10309;SDS011;5200;43.236;27.986;2022-08-19T07:54:14;5.88;;;5.30;;
10309;SDS011;5200;43.236;27.986;2022-08-19T07:56:41;6.30;;;4.82;;
10309;SDS011;5200;43.236;27.986;2022-08-19T07:59:10;7.20;;;4.80;;
10309;SDS011;5200;43.236;27.986;2022-08-19T08:01:37;8.35;;;5.00;;
10309;SDS011;5200;43.236;27.986;2022-08-19T08:04:05;6.38;;;5.20;;
10309;SDS011;5200;43.236;27.986;2022-08-19T08:06:50;7.60;;;4.65;;
10309;SDS011;5200;43.236;27.986;2022-08-19T08:09:36;5.72;;;5.25;;
10309;SDS011;5200;43.236;27.986;2022-08-19T08:12:05;5.35;;;4.82;;
10309;SDS011;5200;43.236;27.986;2022-08-19T08:14:37;5.05;;;4.57;;
10309;SDS011;5200;43.236;27.986;2022-08-19T08:17:07;12.35;;;5.35;;
10309;SDS011;5200;43.236;27.986;2022-08-19T08:19:35;6.43;;;4.47;;
10309;SDS011;5200;43.236;27.986;2022-08-19T08:22:03;5.28;;;4.78;;
10309;SDS011;5200;43.236;27.986;2022-08-19T08:24:32;6.55;;;5.22;;
10309;SDS011;5200;43.236;27.986;2022-08-19T08:27:01;5.38;;;4.40;;
10309;SDS011;5200;43.236;27.986;2022-08-19T08:29:29;6.90;;;5.47;;
10309;SDS011;5200;43.236;27.986;2022-08-19T08:31:58;11.50;;;5.15;;
10309;SDS011;5200;43.236;27.986;2022-08-19T08:34:25;10.10;;;4.90;;
10309;SDS011;5200;43.236;27.986;2022-08-19T08:36:52;7.72;;;5.60;;
10309;SDS011;5200;43.236;27.986;2022-08-19T08:39:19;8.88;;;4.55;;
10309;SDS011;5200;43.236;27.986;2022-08-19T08:41:50;8.68;;;4.75;;
10309;SDS011;5200;43.236;27.986;2022-08-19T08:44:22;7.50;;;4.70;;
10309;SDS011;5200;43.236;27.986;2022-08-19T08:47:00;10.43;;;4.30;;
10309;SDS011;5200;43.236;27.986;2022-08-19T08:49:30;5.43;;;4.93;;
10309;SDS011;5200;43.236;27.986;2022-08-19T08:52:05;6.22;;;4.38;;
10309;SDS011;5200;43.236;27.986;2022-08-19T08:54:34;6.68;;;4.88;;
10309;SDS011;5200;43.236;27.986;2022-08-19T08:57:07;6.85;;;4.40;;
10309;SDS011;5200;43.236;27.986;2022-08-19T08:59:40;6.40;;;5.10;;
10309;SDS011;5200;43.236;27.986;2022-08-19T09:02:10;5.35;;;4.70;;
10309;SDS011;5200;43.236;27.986;2022-08-19T09:04:37;7.20;;;4.97;;
10309;SDS011;5200;43.236;27.986;2022-08-19T09:07:22;7.88;;;4.35;;
10309;SDS011;5200;43.236;27.986;2022-08-19T09:10:02;7.63;;;5.03;;
10309;SDS011;5200;43.236;27.986;2022-08-19T09:12:34;6.50;;;5.00;;
10309;SDS011;5200;43.236;27.986;2022-08-19T09:15:13;9.90;;;4.75;;
10309;SDS011;5200;43.236;27.986;2022-08-19T09:17:43;9.63;;;5.32;;
10309;SDS011;5200;43.236;27.986;2022-08-19T09:20:14;6.95;;;4.85;;
10309;SDS011;5200;43.236;27.986;2022-08-19T09:22:44;8.35;;;4.72;;
10309;SDS011;5200;43.236;27.986;2022-08-19T09:25:15;6.50;;;4.43;;
10309;SDS011;5200;43.236;27.986;2022-08-19T09:27:43;8.73;;;4.65;;
10309;SDS011;5200;43.236;27.986;2022-08-19T09:30:12;8.32;;;4.90;;
10309;SDS011;5200;43.236;27.986;2022-08-19T09:32:41;8.93;;;4.88;;
10309;SDS011;5200;43.236;27.986;2022-08-19T09:35:10;5.03;;;4.47;;
10309;SDS011;5200;43.236;27.986;2022-08-19T09:37:38;7.93;;;4.68;;
10309;SDS011;5200;43.236;27.986;2022-08-19T09:40:06;7.65;;;4.45;;
10309;SDS011;5200;43.236;27.986;2022-08-19T09:42:35;5.38;;;4.88;;
10309;SDS011;5200;43.236;27.986;2022-08-19T09:45:02;7.07;;;4.90;;
10309;SDS011;5200;43.236;27.986;2022-08-19T09:47:30;8.65;;;4.55;;
10309;SDS011;5200;43.236;27.986;2022-08-19T09:50:02;6.90;;;5.13;;
10309;SDS011;5200;43.236;27.986;2022-08-19T09:52:30;12.27;;;4.90;;
10309;SDS011;5200;43.236;27.986;2022-08-19T09:54:57;7.22;;;4.53;;
10309;SDS011;5200;43.236;27.986;2022-08-19T09:57:24;5.68;;;4.78;;
10309;SDS011;5200;43.236;27.986;2022-08-19T09:59:51;6.22;;;4.47;;
10309;SDS011;5200;43.236;27.986;2022-08-19T10:02:18;10.95;;;4.60;;
10309;SDS011;5200;43.236;27.986;2022-08-19T10:04:45;9.50;;;5.00;;
10309;SDS011;5200;43.236;27.986;2022-08-19T10:07:31;7.32;;;4.28;;
10309;SDS011;5200;43.236;27.986;2022-08-19T10:09:58;8.20;;;4.28;;
10309;SDS011;5200;43.236;27.986;2022-08-19T10:12:25;10.18;;;5.35;;
10309;SDS011;5200;43.236;27.986;2022-08-19T10:14:52;6.15;;;4.70;;
10309;SDS011;5200;43.236;27.986;2022-08-19T10:17:19;8.52;;;4.65;;
10309;SDS011;5200;43.236;27.986;2022-08-19T10:19:46;7.10;;;4.60;;
10309;SDS011;5200;43.236;27.986;2022-08-19T10:22:13;9.45;;;4.15;;
10309;SDS011;5200;43.236;27.986;2022-08-19T10:24:42;10.65;;;5.28;;
10309;SDS011;5200;43.236;27.986;2022-08-19T10:27:09;8.27;;;4.55;;
10309;SDS011;5200;43.236;27.986;2022-08-19T10:29:38;13.68;;;4.88;;
10309;SDS011;5200;43.236;27.986;2022-08-19T10:32:05;7.82;;;4.85;;
10309;SDS011;5200;43.236;27.986;2022-08-19T10:34:34;5.82;;;4.93;;
10309;SDS011;5200;43.236;27.986;2022-08-19T10:37:02;8.30;;;5.05;;
10309;SDS011;5200;43.236;27.986;2022-08-19T10:39:31;5.72;;;4.55;;
10309;SDS011;5200;43.236;27.986;2022-08-19T10:42:03;5.90;;;4.30;;
10309;SDS011;5200;43.236;27.986;2022-08-19T10:44:31;4.78;;;4.38;;
10309;SDS011;5200;43.236;27.986;2022-08-19T10:47:00;6.97;;;5.50;;
10309;SDS011;5200;43.236;27.986;2022-08-19T10:49:28;9.38;;;6.40;;
10309;SDS011;5200;43.236;27.986;2022-08-19T10:51:55;6.90;;;6.20;;
10309;SDS011;5200;43.236;27.986;2022-08-19T10:54:40;7.15;;;6.07;;
10309;SDS011;5200;43.236;27.986;2022-08-19T10:57:26;6.70;;;6.03;;
10309;SDS011;5200;43.236;27.986;2022-08-19T10:59:57;7.00;;;6.03;;
10309;SDS011;5200;43.236;27.986;2022-08-19T11:02:23;7.22;;;6.57;;
10309;SDS011;5200;43.236;27.986;2022-08-19T11:04:50;8.40;;;6.22;;
10309;SDS011;5200;43.236;27.986;2022-08-19T11:07:17;7.10;;;6.18;;
10309;SDS011;5200;43.236;27.986;2022-08-19T11:09:44;9.55;;;6.20;;
10309;SDS011;5200;43.236;27.986;2022-08-19T11:12:12;9.02;;;6.28;;
10309;SDS011;5200;43.236;27.986;2022-08-19T11:14:41;7.60;;;6.90;;
10309;SDS011;5200;43.236;27.986;2022-08-19T11:17:08;6.88;;;6.28;;
10309;SDS011;5200;43.236;27.986;2022-08-19T11:19:36;9.25;;;6.60;;
10309;SDS011;5200;43.236;27.986;2022-08-19T11:22:03;9.27;;;6.60;;
10309;SDS011;5200;43.236;27.986;2022-08-19T11:24:30;9.25;;;7.07;;
10309;SDS011;5200;43.236;27.986;2022-08-19T11:27:00;10.38;;;6.70;;
10309;SDS011;5200;43.236;27.986;2022-08-19T11:29:30;6.95;;;6.25;;
10309;SDS011;5200;43.236;27.986;2022-08-19T11:32:02;8.27;;;6.70;;
10309;SDS011;5200;43.236;27.986;2022-08-19T11:34:31;12.07;;;6.90;;
10309;SDS011;5200;43.236;27.986;2022-08-19T11:36:58;8.90;;;7.05;;
10309;SDS011;5200;43.236;27.986;2022-08-19T11:39:26;9.85;;;6.65;;
10309;SDS011;5200;43.236;27.986;2022-08-19T11:41:54;10.85;;;6.63;;
10309;SDS011;5200;43.236;27.986;2022-08-19T11:44:21;7.50;;;6.70;;
10309;SDS011;5200;43.236;27.986;2022-08-19T11:46:48;10.55;;;7.25;;
10309;SDS011;5200;43.236;27.986;2022-08-19T11:49:17;7.38;;;5.88;;
10309;SDS011;5200;43.236;27.986;2022-08-19T11:51:46;13.82;;;6.60;;
10309;SDS011;5200;43.236;27.986;2022-08-19T11:54:15;9.35;;;7.15;;
10309;SDS011;5200;43.236;27.986;2022-08-19T11:56:43;7.70;;;6.05;;
10309;SDS011;5200;43.236;27.986;2022-08-19T11:59:12;8.13;;;6.93;;
10309;SDS011;5200;43.236;27.986;2022-08-19T12:01:39;7.30;;;6.53;;
10309;SDS011;5200;43.236;27.986;2022-08-19T12:04:07;9.07;;;6.97;;
10309;SDS011;5200;43.236;27.986;2022-08-19T12:06:37;6.60;;;5.80;;
10309;SDS011;5200;43.236;27.986;2022-08-19T12:09:06;9.50;;;6.43;;
10309;SDS011;5200;43.236;27.986;2022-08-19T12:11:34;10.77;;;6.53;;
10309;SDS011;5200;43.236;27.986;2022-08-19T12:14:02;11.50;;;6.35;;
10309;SDS011;5200;43.236;27.986;2022-08-19T12:16:30;8.35;;;6.43;;
10309;SDS011;5200;43.236;27.986;2022-08-19T12:18:58;10.20;;;6.80;;
10309;SDS011;5200;43.236;27.986;2022-08-19T12:21:29;6.85;;;6.15;;
10309;SDS011;5200;43.236;27.986;2022-08-19T12:23:59;7.20;;;6.55;;
10309;SDS011;5200;43.236;27.986;2022-08-19T12:26:27;6.38;;;5.78;;
10309;SDS011;5200;43.236;27.986;2022-08-19T12:28:56;7.85;;;6.40;;
10309;SDS011;5200;43.236;27.986;2022-08-19T12:31:24;8.98;;;5.72;;
10309;SDS011;5200;43.236;27.986;2022-08-19T12:33:51;6.90;;;6.20;;
10309;SDS011;5200;43.236;27.986;2022-08-19T12:36:18;6.78;;;6.07;;
10309;SDS011;5200;43.236;27.986;2022-08-19T12:38:47;7.35;;;5.68;;
10309;SDS011;5200;43.236;27.986;2022-08-19T12:41:15;9.40;;;5.85;;
10309;SDS011;5200;43.236;27.986;2022-08-19T12:43:43;6.82;;;5.90;;
10309;SDS011;5200;43.236;27.986;2022-08-19T12:46:10;8.07;;;5.95;;
10309;SDS011;5200;43.236;27.986;2022-08-19T12:48:39;6.40;;;5.53;;
10309;SDS011;5200;43.236;27.986;2022-08-19T12:51:08;7.72;;;5.95;;
10309;SDS011;5200;43.236;27.986;2022-08-19T12:53:37;7.45;;;5.57;;
10309;SDS011;5200;43.236;27.986;2022-08-19T12:56:05;8.45;;;5.82;;
10309;SDS011;5200;43.236;27.986;2022-08-19T12:58:33;7.93;;;5.78;;
10309;SDS011;5200;43.236;27.986;2022-08-19T13:01:05;7.32;;;6.03;;
10309;SDS011;5200;43.236;27.986;2022-08-19T13:03:33;6.90;;;5.63;;
10309;SDS011;5200;43.236;27.986;2022-08-19T13:06:01;9.25;;;6.18;;
10309;SDS011;5200;43.236;27.986;2022-08-19T13:08:28;7.28;;;6.32;;
10309;SDS011;5200;43.236;27.986;2022-08-19T13:10:55;5.78;;;5.32;;
10309;SDS011;5200;43.236;27.986;2022-08-19T13:13:23;13.60;;;6.25;;
10309;SDS011;5200;43.236;27.986;2022-08-19T13:15:52;7.00;;;5.65;;
10309;SDS011;5200;43.236;27.986;2022-08-19T13:18:27;8.93;;;6.43;;
10309;SDS011;5200;43.236;27.986;2022-08-19T13:20:54;11.05;;;5.63;;
10309;SDS011;5200;43.236;27.986;2022-08-19T13:23:21;15.60;;;6.13;;
10309;SDS011;5200;43.236;27.986;2022-08-19T13:25:55;6.15;;;5.55;;
10309;SDS011;5200;43.236;27.986;2022-08-19T13:28:22;10.02;;;6.25;;
10309;SDS011;5200;43.236;27.986;2022-08-19T13:30:49;11.05;;;5.57;;
10309;SDS011;5200;43.236;27.986;2022-08-19T13:33:35;11.23;;;5.20;;
10309;SDS011;5200;43.236;27.986;2022-08-19T13:36:02;8.80;;;5.72;;
10309;SDS011;5200;43.236;27.986;2022-08-19T13:38:32;13.75;;;6.10;;
10309;SDS011;5200;43.236;27.986;2022-08-19T13:41:04;6.60;;;5.28;;
10309;SDS011;5200;43.236;27.986;2022-08-19T13:43:31;6.55;;;5.75;;
10309;SDS011;5200;43.236;27.986;2022-08-19T13:45:59;10.77;;;6.07;;
10309;SDS011;5200;43.236;27.986;2022-08-19T13:48:34;6.80;;;5.13;;
10309;SDS011;5200;43.236;27.986;2022-08-19T13:51:01;7.60;;;5.55;;
10309;SDS011;5200;43.236;27.986;2022-08-19T13:53:31;10.02;;;5.88;;
10309;SDS011;5200;43.236;27.986;2022-08-19T13:55:58;6.00;;;5.25;;
10309;SDS011;5200;43.236;27.986;2022-08-19T13:58:25;7.05;;;5.75;;
10309;SDS011;5200;43.236;27.986;2022-08-19T14:00:52;6.03;;;5.38;;
10309;SDS011;5200;43.236;27.986;2022-08-19T14:03:20;6.50;;;5.20;;
10309;SDS011;5200;43.236;27.986;2022-08-19T14:05:47;12.90;;;5.72;;
10309;SDS011;5200;43.236;27.986;2022-08-19T14:08:14;7.38;;;5.97;;
10309;SDS011;5200;43.236;27.986;2022-08-19T14:10:41;6.70;;;6.00;;
10309;SDS011;5200;43.236;27.986;2022-08-19T14:13:10;7.57;;;5.85;;
10309;SDS011;5200;43.236;27.986;2022-08-19T14:15:39;10.65;;;5.88;;
10309;SDS011;5200;43.236;27.986;2022-08-19T14:18:06;17.20;;;12.95;;
10309;SDS011;5200;43.236;27.986;2022-08-19T14:20:35;15.70;;;9.90;;
10309;SDS011;5200;43.236;27.986;2022-08-19T14:23:02;12.07;;;9.45;;
10309;SDS011;5200;43.236;27.986;2022-08-19T14:25:30;20.10;;;14.30;;
10309;SDS011;5200;43.236;27.986;2022-08-19T14:27:57;11.43;;;7.40;;
10309;SDS011;5200;43.236;27.986;2022-08-19T14:30:25;13.20;;;8.60;;
10309;SDS011;5200;43.236;27.986;2022-08-19T14:32:54;10.63;;;8.35;;
10309;SDS011;5200;43.236;27.986;2022-08-19T14:35:21;9.70;;;6.25;;
10309;SDS011;5200;43.236;27.986;2022-08-19T14:37:50;7.10;;;5.50;;
10309;SDS011;5200;43.236;27.986;2022-08-19T14:40:21;8.60;;;6.40;;
10309;SDS011;5200;43.236;27.986;2022-08-19T14:42:50;9.63;;;5.18;;
10309;SDS011;5200;43.236;27.986;2022-08-19T14:45:18;15.43;;;6.72;;
10309;SDS011;5200;43.236;27.986;2022-08-19T14:47:45;6.15;;;5.55;;
10309;SDS011;5200;43.236;27.986;2022-08-19T14:50:11;9.25;;;5.28;;
10309;SDS011;5200;43.236;27.986;2022-08-19T14:52:38;7.95;;;5.70;;
10309;SDS011;5200;43.236;27.986;2022-08-19T14:55:07;7.05;;;5.28;;